sensor_id;sensor_type;location;lat;lon;timestamp;P1;durP1;ratioP1;P2;durP2;ratioP2
8500;SDS011;4288;48.484;10.024;2024-03-02T08:12:29;15.77;;;8.13;;
8500;SDS011;4288;48.484;10.024;2024-03-02T08:14:57;24.00;;;9.80;;
8500;SDS011;4288;48.484;10.024;2024-03-02T08:17:24;17.20;;;7.60;;
8500;SDS011;4288;48.484;10.024;2024-03-02T08:19:52;22.33;;;8.07;;
8500;SDS011;4288;48.484;10.024;2024-03-02T08:22:20;20.30;;;9.50;;
8500;SDS011;4288;48.484;10.024;2024-03-02T08:24:47;24.47;;;8.50;;
8500;SDS011;4288;48.484;10.024;2024-03-02T08:27:15;15.37;;;8.60;;
8500;SDS011;4288;48.484;10.024;2024-03-02T08:29:43;14.37;;;7.40;;
8500;SDS011;4288;48.484;10.024;2024-03-02T08:32:11;19.60;;;8.40;;
8500;SDS011;4288;48.484;10.024;2024-03-02T08:34:38;14.10;;;7.77;;
8500;SDS011;4288;48.484;10.024;2024-03-02T08:37:05;17.63;;;7.50;;
8500;SDS011;4288;48.484;10.024;2024-03-02T08:39:33;20.20;;;8.37;;
8500;SDS011;4288;48.484;10.024;2024-03-02T08:42:00;17.60;;;7.60;;
8500;SDS011;4288;48.484;10.024;2024-03-02T08:44:29;13.50;;;7.53;;
8500;SDS011;4288;48.484;10.024;2024-03-02T08:46:59;15.03;;;7.30;;
8500;SDS011;4288;48.484;10.024;2024-03-02T08:49:27;14.33;;;6.70;;
8500;SDS011;4288;48.484;10.024;2024-03-02T08:51:54;12.83;;;6.27;;
8500;SDS011;4288;48.484;10.024;2024-03-02T08:54:22;12.33;;;6.37;;
8500;SDS011;4288;48.484;10.024;2024-03-02T08:56:49;17.57;;;6.47;;
8500;SDS011;4288;48.484;10.024;2024-03-02T08:59:17;14.43;;;7.27;;
8500;SDS011;4288;48.484;10.024;2024-03-02T09:01:44;15.03;;;6.20;;
8500;SDS011;4288;48.484;10.024;2024-03-02T09:04:13;11.80;;;6.93;;
8500;SDS011;4288;48.484;10.024;2024-03-02T09:06:40;12.70;;;6.77;;
8500;SDS011;4288;48.484;10.024;2024-03-02T09:09:08;18.90;;;10.47;;
8500;SDS011;4288;48.484;10.024;2024-03-02T09:11:35;18.17;;;9.00;;
8500;SDS011;4288;48.484;10.024;2024-03-02T09:14:02;12.20;;;6.57;;
8500;SDS011;4288;48.484;10.024;2024-03-02T09:16:30;17.07;;;6.10;;
8500;SDS011;4288;48.484;10.024;2024-03-02T09:18:57;11.23;;;6.60;;
8500;SDS011;4288;48.484;10.024;2024-03-02T09:21:27;12.23;;;6.40;;
8500;SDS011;4288;48.484;10.024;2024-03-02T09:23:55;9.10;;;5.97;;
8500;SDS011;4288;48.484;10.024;2024-03-02T09:26:22;11.20;;;5.40;;
8500;SDS011;4288;48.484;10.024;2024-03-02T09:28:50;17.33;;;6.60;;
8500;SDS011;4288;48.484;10.024;2024-03-02T09:31:18;9.83;;;6.73;;
8500;SDS011;4288;48.484;10.024;2024-03-02T09:33:45;12.10;;;6.10;;
8500;SDS011;4288;48.484;10.024;2024-03-02T09:36:19;9.73;;;5.93;;
8500;SDS011;4288;48.484;10.024;2024-03-02T09:38:49;20.37;;;5.63;;
8500;SDS011;4288;48.484;10.024;2024-03-02T09:41:17;9.40;;;5.60;;
8500;SDS011;4288;48.484;10.024;2024-03-02T09:43:45;11.40;;;4.70;;
8500;SDS011;4288;48.484;10.024;2024-03-02T09:46:13;9.90;;;4.63;;
8500;SDS011;4288;48.484;10.024;2024-03-02T09:48:41;14.53;;;5.83;;
8500;SDS011;4288;48.484;10.024;2024-03-02T09:51:10;14.07;;;5.57;;
8500;SDS011;4288;48.484;10.024;2024-03-02T09:53:38;7.67;;;4.57;;
8500;SDS011;4288;48.484;10.024;2024-03-02T09:56:07;6.20;;;4.13;;
8500;SDS011;4288;48.484;10.024;2024-03-02T09:58:34;16.00;;;4.67;;
8500;SDS011;4288;48.484;10.024;2024-03-02T10:01:03;8.10;;;4.30;;
8500;SDS011;4288;48.484;10.024;2024-03-02T10:03:32;11.07;;;4.40;;
8500;SDS011;4288;48.484;10.024;2024-03-02T10:08:46;6.20;;;3.70;;
8500;SDS011;4288;48.484;10.024;2024-03-02T10:11:26;8.43;;;4.87;;
8500;SDS011;4288;48.484;10.024;2024-03-02T10:14:05;8.37;;;5.30;;
8500;SDS011;4288;48.484;10.024;2024-03-02T10:16:34;13.00;;;4.87;;
8500;SDS011;4288;48.484;10.024;2024-03-02T10:19:18;6.90;;;4.33;;
8500;SDS011;4288;48.484;10.024;2024-03-02T10:21:47;7.80;;;3.90;;
8500;SDS011;4288;48.484;10.024;2024-03-02T10:24:15;6.23;;;4.70;;
8500;SDS011;4288;48.484;10.024;2024-03-02T10:26:44;7.63;;;4.50;;
8500;SDS011;4288;48.484;10.024;2024-03-02T10:29:12;7.00;;;4.10;;
8500;SDS011;4288;48.484;10.024;2024-03-02T10:31:40;15.83;;;4.63;;
8500;SDS011;4288;48.484;10.024;2024-03-02T10:34:09;10.50;;;4.23;;
8500;SDS011;4288;48.484;10.024;2024-03-02T10:36:40;11.17;;;4.13;;
8500;SDS011;4288;48.484;10.024;2024-03-02T10:39:09;9.33;;;5.07;;
8500;SDS011;4288;48.484;10.024;2024-03-02T10:41:38;7.20;;;4.73;;
8500;SDS011;4288;48.484;10.024;2024-03-02T10:44:08;9.07;;;4.30;;
8500;SDS011;4288;48.484;10.024;2024-03-02T10:46:36;6.87;;;3.90;;
8500;SDS011;4288;48.484;10.024;2024-03-02T10:49:05;10.20;;;4.37;;
8500;SDS011;4288;48.484;10.024;2024-03-02T10:51:33;12.63;;;4.90;;
8500;SDS011;4288;48.484;10.024;2024-03-02T10:54:02;14.63;;;5.10;;
8500;SDS011;4288;48.484;10.024;2024-03-02T10:56:31;10.87;;;5.30;;
8500;SDS011;4288;48.484;10.024;2024-03-02T10:59:02;9.57;;;6.47;;
8500;SDS011;4288;48.484;10.024;2024-03-02T11:01:39;17.67;;;8.20;;
8500;SDS011;4288;48.484;10.024;2024-03-02T11:04:09;8.40;;;4.30;;
8500;SDS011;4288;48.484;10.024;2024-03-02T11:06:39;15.80;;;5.90;;
8500;SDS011;4288;48.484;10.024;2024-03-02T11:09:12;13.13;;;8.60;;
8500;SDS011;4288;48.484;10.024;2024-03-02T11:11:40;14.23;;;8.17;;
8500;SDS011;4288;48.484;10.024;2024-03-02T11:14:10;11.37;;;8.40;;
8500;SDS011;4288;48.484;10.024;2024-03-02T11:16:43;8.80;;;6.37;;
8500;SDS011;4288;48.484;10.024;2024-03-02T11:19:12;7.80;;;4.43;;
8500;SDS011;4288;48.484;10.024;2024-03-02T11:21:41;4.77;;;3.20;;
8500;SDS011;4288;48.484;10.024;2024-03-02T11:24:28;4.60;;;3.53;;
8500;SDS011;4288;48.484;10.024;2024-03-02T11:26:59;3.30;;;2.60;;
8500;SDS011;4288;48.484;10.024;2024-03-02T11:29:42;2.23;;;2.03;;
8500;SDS011;4288;48.484;10.024;2024-03-02T11:32:14;2.43;;;2.23;;
8500;SDS011;4288;48.484;10.024;2024-03-02T11:34:44;3.63;;;1.93;;
8500;SDS011;4288;48.484;10.024;2024-03-02T11:37:14;3.50;;;2.20;;
8500;SDS011;4288;48.484;10.024;2024-03-02T11:39:43;34.63;;;5.30;;
8500;SDS011;4288;48.484;10.024;2024-03-02T11:42:11;23.60;;;5.23;;
8500;SDS011;4288;48.484;10.024;2024-03-02T11:44:41;11.30;;;4.37;;
8500;SDS011;4288;48.484;10.024;2024-03-02T11:47:11;11.63;;;3.93;;
8500;SDS011;4288;48.484;10.024;2024-03-02T11:49:44;15.97;;;5.10;;
8500;SDS011;4288;48.484;10.024;2024-03-02T11:52:15;17.70;;;6.10;;
8500;SDS011;4288;48.484;10.024;2024-03-02T11:54:43;19.67;;;6.80;;
8500;SDS011;4288;48.484;10.024;2024-03-02T11:57:13;21.80;;;4.40;;
8500;SDS011;4288;48.484;10.024;2024-03-02T11:59:42;15.10;;;4.17;;
8500;SDS011;4288;48.484;10.024;2024-03-02T12:02:14;12.87;;;4.23;;
8500;SDS011;4288;48.484;10.024;2024-03-02T12:04:44;14.93;;;4.43;;
8500;SDS011;4288;48.484;10.024;2024-03-02T12:07:16;9.27;;;3.17;;
8500;SDS011;4288;48.484;10.024;2024-03-02T12:09:47;10.03;;;4.53;;
8500;SDS011;4288;48.484;10.024;2024-03-02T12:12:15;10.67;;;5.00;;
8500;SDS011;4288;48.484;10.024;2024-03-02T12:14:49;10.93;;;3.53;;
8500;SDS011;4288;48.484;10.024;2024-03-02T12:17:20;7.33;;;2.83;;
8500;SDS011;4288;48.484;10.024;2024-03-02T12:19:49;5.50;;;2.63;;
8500;SDS011;4288;48.484;10.024;2024-03-02T12:22:16;5.47;;;2.67;;
8500;SDS011;4288;48.484;10.024;2024-03-02T12:24:44;6.07;;;2.07;;
8500;SDS011;4288;48.484;10.024;2024-03-02T12:27:12;4.10;;;2.37;;
8500;SDS011;4288;48.484;10.024;2024-03-02T12:29:41;5.70;;;2.10;;
8500;SDS011;4288;48.484;10.024;2024-03-02T12:32:08;3.13;;;2.30;;
8500;SDS011;4288;48.484;10.024;2024-03-02T12:34:35;4.93;;;1.90;;
8500;SDS011;4288;48.484;10.024;2024-03-02T12:37:06;7.00;;;2.83;;
8500;SDS011;4288;48.484;10.024;2024-03-02T12:39:34;3.83;;;2.20;;
8500;SDS011;4288;48.484;10.024;2024-03-02T12:42:02;10.60;;;3.70;;
8500;SDS011;4288;48.484;10.024;2024-03-02T12:44:29;8.20;;;2.03;;
8500;SDS011;4288;48.484;10.024;2024-03-02T12:46:57;4.63;;;2.00;;
8500;SDS011;4288;48.484;10.024;2024-03-02T12:49:24;15.57;;;2.50;;
8500;SDS011;4288;48.484;10.024;2024-03-02T12:51:53;9.90;;;2.10;;
8500;SDS011;4288;48.484;10.024;2024-03-02T12:54:24;3.50;;;1.67;;
8500;SDS011;4288;48.484;10.024;2024-03-02T12:56:52;4.00;;;2.00;;
8500;SDS011;4288;48.484;10.024;2024-03-02T12:59:19;10.90;;;1.60;;
8500;SDS011;4288;48.484;10.024;2024-03-02T13:01:50;5.10;;;2.27;;
8500;SDS011;4288;48.484;10.024;2024-03-02T13:04:21;4.43;;;2.00;;
8500;SDS011;4288;48.484;10.024;2024-03-02T13:06:49;6.20;;;2.90;;
8500;SDS011;4288;48.484;10.024;2024-03-02T13:09:18;5.07;;;3.00;;
8500;SDS011;4288;48.484;10.024;2024-03-02T13:11:48;4.83;;;3.37;;
8500;SDS011;4288;48.484;10.024;2024-03-02T13:14:15;6.23;;;3.90;;
8500;SDS011;4288;48.484;10.024;2024-03-02T13:16:44;3.30;;;2.97;;
8500;SDS011;4288;48.484;10.024;2024-03-02T13:19:12;5.57;;;3.27;;
8500;SDS011;4288;48.484;10.024;2024-03-02T13:21:39;5.13;;;3.10;;
8500;SDS011;4288;48.484;10.024;2024-03-02T13:24:07;3.90;;;3.20;;
8500;SDS011;4288;48.484;10.024;2024-03-02T13:26:34;5.80;;;4.00;;
8500;SDS011;4288;48.484;10.024;2024-03-02T13:29:03;3.90;;;3.43;;
8500;SDS011;4288;48.484;10.024;2024-03-02T13:31:30;8.00;;;4.03;;
8500;SDS011;4288;48.484;10.024;2024-03-02T13:33:58;4.63;;;3.47;;
8500;SDS011;4288;48.484;10.024;2024-03-02T13:36:25;5.03;;;3.23;;
8500;SDS011;4288;48.484;10.024;2024-03-02T13:38:53;6.80;;;2.33;;
8500;SDS011;4288;48.484;10.024;2024-03-02T13:41:20;2.17;;;1.57;;
8500;SDS011;4288;48.484;10.024;2024-03-02T13:43:47;2.87;;;1.77;;
8500;SDS011;4288;48.484;10.024;2024-03-02T13:46:16;2.23;;;1.83;;
8500;SDS011;4288;48.484;10.024;2024-03-02T13:48:44;2.30;;;1.50;;
8500;SDS011;4288;48.484;10.024;2024-03-02T13:51:11;5.00;;;1.90;;
8500;SDS011;4288;48.484;10.024;2024-03-02T13:53:38;5.90;;;1.77;;
8500;SDS011;4288;48.484;10.024;2024-03-02T13:56:06;1.63;;;1.20;;
8500;SDS011;4288;48.484;10.024;2024-03-02T13:58:34;1.90;;;1.43;;
8500;SDS011;4288;48.484;10.024;2024-03-02T14:01:02;2.20;;;1.63;;
8500;SDS011;4288;48.484;10.024;2024-03-02T14:03:31;1.90;;;1.63;;
8500;SDS011;4288;48.484;10.024;2024-03-02T14:05:58;7.73;;;1.60;;
8500;SDS011;4288;48.484;10.024;2024-03-02T14:08:26;5.17;;;1.90;;
8500;SDS011;4288;48.484;10.024;2024-03-02T14:10:53;2.30;;;1.83;;
8500;SDS011;4288;48.484;10.024;2024-03-02T14:13:23;4.63;;;1.30;;
8500;SDS011;4288;48.484;10.024;2024-03-02T14:15:51;2.30;;;1.10;;
8500;SDS011;4288;48.484;10.024;2024-03-02T14:18:18;1.90;;;1.50;;
8500;SDS011;4288;48.484;10.024;2024-03-02T14:20:47;1.90;;;1.53;;
8500;SDS011;4288;48.484;10.024;2024-03-02T14:23:17;8.23;;;1.60;;
8500;SDS011;4288;48.484;10.024;2024-03-02T14:25:45;4.20;;;1.80;;
8500;SDS011;4288;48.484;10.024;2024-03-02T14:28:13;7.07;;;1.17;;
8500;SDS011;4288;48.484;10.024;2024-03-02T14:30:41;1.63;;;1.53;;
8500;SDS011;4288;48.484;10.024;2024-03-02T14:33:09;3.40;;;1.53;;
8500;SDS011;4288;48.484;10.024;2024-03-02T14:35:36;3.70;;;1.27;;
8500;SDS011;4288;48.484;10.024;2024-03-02T14:38:05;3.30;;;1.70;;
8500;SDS011;4288;48.484;10.024;2024-03-02T14:40:32;2.57;;;1.60;;
8500;SDS011;4288;48.484;10.024;2024-03-02T14:43:00;1.70;;;1.10;;
8500;SDS011;4288;48.484;10.024;2024-03-02T14:45:26;2.57;;;1.27;;
8500;SDS011;4288;48.484;10.024;2024-03-02T14:47:53;3.33;;;1.30;;
8500;SDS011;4288;48.484;10.024;2024-03-02T14:50:24;4.40;;;1.60;;
8500;SDS011;4288;48.484;10.024;2024-03-02T14:52:52;2.87;;;2.10;;
8500;SDS011;4288;48.484;10.024;2024-03-02T14:55:22;2.17;;;1.60;;
8500;SDS011;4288;48.484;10.024;2024-03-02T14:57:49;4.60;;;2.20;;
8500;SDS011;4288;48.484;10.024;2024-03-02T15:00:17;2.40;;;1.33;;
8500;SDS011;4288;48.484;10.024;2024-03-02T15:02:45;2.60;;;1.70;;
8500;SDS011;4288;48.484;10.024;2024-03-02T15:05:12;5.03;;;1.70;;
8500;SDS011;4288;48.484;10.024;2024-03-02T15:07:39;1.87;;;1.50;;
8500;SDS011;4288;48.484;10.024;2024-03-02T15:10:07;4.63;;;1.70;;
8500;SDS011;4288;48.484;10.024;2024-03-02T15:12:36;6.87;;;1.40;;
8500;SDS011;4288;48.484;10.024;2024-03-02T15:15:04;2.50;;;1.67;;
8500;SDS011;4288;48.484;10.024;2024-03-02T15:17:31;3.43;;;1.50;;
8500;SDS011;4288;48.484;10.024;2024-03-02T15:19:59;3.27;;;2.97;;
8500;SDS011;4288;48.484;10.024;2024-03-02T15:22:26;3.90;;;2.67;;
8500;SDS011;4288;48.484;10.024;2024-03-02T15:24:54;6.60;;;1.93;;
8500;SDS011;4288;48.484;10.024;2024-03-02T15:27:21;3.43;;;1.80;;
8500;SDS011;4288;48.484;10.024;2024-03-02T15:29:51;2.27;;;1.33;;
8500;SDS011;4288;48.484;10.024;2024-03-02T15:32:20;8.43;;;2.80;;
8500;SDS011;4288;48.484;10.024;2024-03-02T15:34:47;2.43;;;1.50;;
8500;SDS011;4288;48.484;10.024;2024-03-02T15:37:16;4.80;;;1.83;;
8500;SDS011;4288;48.484;10.024;2024-03-02T15:39:44;2.30;;;1.60;;
8500;SDS011;4288;48.484;10.024;2024-03-02T15:42:11;2.10;;;1.63;;
8500;SDS011;4288;48.484;10.024;2024-03-02T15:44:38;2.00;;;1.60;;
8500;SDS011;4288;48.484;10.024;2024-03-02T15:47:07;2.47;;;1.53;;
8500;SDS011;4288;48.484;10.024;2024-03-02T15:49:35;7.03;;;2.30;;
8500;SDS011;4288;48.484;10.024;2024-03-02T15:52:02;2.30;;;1.60;;
8500;SDS011;4288;48.484;10.024;2024-03-02T15:54:30;6.73;;;3.60;;
8500;SDS011;4288;48.484;10.024;2024-03-02T15:56:57;10.87;;;5.87;;
8500;SDS011;4288;48.484;10.024;2024-03-02T15:59:24;10.90;;;6.83;;
8500;SDS011;4288;48.484;10.024;2024-03-02T16:01:52;10.37;;;6.73;;
8500;SDS011;4288;48.484;10.024;2024-03-02T16:04:23;15.57;;;10.10;;
8500;SDS011;4288;48.484;10.024;2024-03-02T16:06:50;11.93;;;6.33;;
8500;SDS011;4288;48.484;10.024;2024-03-02T16:09:18;11.63;;;5.40;;
8500;SDS011;4288;48.484;10.024;2024-03-02T16:11:45;7.83;;;3.30;;
8500;SDS011;4288;48.484;10.024;2024-03-02T16:14:13;4.50;;;2.60;;
8500;SDS011;4288;48.484;10.024;2024-03-02T16:16:41;9.37;;;5.57;;
8500;SDS011;4288;48.484;10.024;2024-03-02T16:19:09;9.53;;;3.20;;
8500;SDS011;4288;48.484;10.024;2024-03-02T16:21:38;4.23;;;3.00;;
8500;SDS011;4288;48.484;10.024;2024-03-02T16:24:05;3.93;;;2.27;;
8500;SDS011;4288;48.484;10.024;2024-03-02T16:26:33;4.20;;;2.37;;
8500;SDS011;4288;48.484;10.024;2024-03-02T16:29:01;6.70;;;2.80;;
8500;SDS011;4288;48.484;10.024;2024-03-02T16:31:28;6.00;;;3.23;;
8500;SDS011;4288;48.484;10.024;2024-03-02T16:33:56;7.87;;;5.60;;
8500;SDS011;4288;48.484;10.024;2024-03-02T16:36:23;7.20;;;2.33;;
8500;SDS011;4288;48.484;10.024;2024-03-02T16:38:54;9.60;;;2.77;;
8500;SDS011;4288;48.484;10.024;2024-03-02T16:41:21;4.10;;;2.67;;
8500;SDS011;4288;48.484;10.024;2024-03-02T16:43:51;4.07;;;2.90;;
8500;SDS011;4288;48.484;10.024;2024-03-02T16:46:19;5.23;;;3.10;;
8500;SDS011;4288;48.484;10.024;2024-03-02T16:48:46;3.80;;;2.40;;
8500;SDS011;4288;48.484;10.024;2024-03-02T16:51:13;4.37;;;2.73;;
8500;SDS011;4288;48.484;10.024;2024-03-02T16:53:41;6.20;;;3.00;;
8500;SDS011;4288;48.484;10.024;2024-03-02T16:56:09;4.90;;;2.93;;
8500;SDS011;4288;48.484;10.024;2024-03-02T16:58:37;11.37;;;3.27;;
8500;SDS011;4288;48.484;10.024;2024-03-02T17:01:04;4.70;;;2.70;;
8500;SDS011;4288;48.484;10.024;2024-03-02T17:03:31;8.17;;;2.30;;
8500;SDS011;4288;48.484;10.024;2024-03-02T17:05:59;9.93;;;3.30;;
8500;SDS011;4288;48.484;10.024;2024-03-02T17:08:26;8.47;;;3.40;;
8500;SDS011;4288;48.484;10.024;2024-03-02T17:10:54;16.73;;;10.90;;
8500;SDS011;4288;48.484;10.024;2024-03-02T17:13:22;15.13;;;8.17;;
8500;SDS011;4288;48.484;10.024;2024-03-02T17:15:50;14.13;;;6.90;;
8500;SDS011;4288;48.484;10.024;2024-03-02T17:18:17;8.80;;;4.57;;
8500;SDS011;4288;48.484;10.024;2024-03-02T17:20:45;5.07;;;3.90;;
8500;SDS011;4288;48.484;10.024;2024-03-02T17:23:12;12.70;;;5.20;;
8500;SDS011;4288;48.484;10.024;2024-03-02T17:25:39;20.17;;;8.53;;
8500;SDS011;4288;48.484;10.024;2024-03-02T17:28:20;21.00;;;11.90;;
8500;SDS011;4288;48.484;10.024;2024-03-02T17:30:50;24.33;;;12.73;;
8500;SDS011;4288;48.484;10.024;2024-03-02T17:33:17;24.83;;;13.60;;
8500;SDS011;4288;48.484;10.024;2024-03-02T17:35:45;29.53;;;14.57;;
8500;SDS011;4288;48.484;10.024;2024-03-02T17:38:12;19.93;;;12.70;;
8500;SDS011;4288;48.484;10.024;2024-03-02T17:40:40;29.33;;;15.17;;
8500;SDS011;4288;48.484;10.024;2024-03-02T17:43:08;25.73;;;12.73;;
8500;SDS011;4288;48.484;10.024;2024-03-02T17:45:38;25.40;;;13.70;;
8500;SDS011;4288;48.484;10.024;2024-03-02T17:48:06;25.40;;;12.00;;
8500;SDS011;4288;48.484;10.024;2024-03-02T17:50:33;38.50;;;13.20;;
8500;SDS011;4288;48.484;10.024;2024-03-02T17:53:01;25.77;;;12.17;;
8500;SDS011;4288;48.484;10.024;2024-03-02T17:55:28;23.47;;;12.30;;
8500;SDS011;4288;48.484;10.024;2024-03-02T17:57:56;23.63;;;13.33;;
8500;SDS011;4288;48.484;10.024;2024-03-02T18:00:23;23.53;;;12.10;;
8500;SDS011;4288;48.484;10.024;2024-03-02T18:02:52;29.13;;;13.50;;
8500;SDS011;4288;48.484;10.024;2024-03-02T18:05:19;24.57;;;11.30;;
8500;SDS011;4288;48.484;10.024;2024-03-02T18:07:47;28.23;;;11.97;;
8500;SDS011;4288;48.484;10.024;2024-03-02T18:10:14;26.50;;;10.50;;
8500;SDS011;4288;48.484;10.024;2024-03-02T18:12:42;22.07;;;11.93;;
8500;SDS011;4288;48.484;10.024;2024-03-02T18:15:09;19.03;;;11.57;;
8500;SDS011;4288;48.484;10.024;2024-03-02T18:17:37;33.73;;;12.47;;
8500;SDS011;4288;48.484;10.024;2024-03-02T18:20:06;21.27;;;10.63;;
8500;SDS011;4288;48.484;10.024;2024-03-02T18:22:36;21.47;;;9.90;;
8500;SDS011;4288;48.484;10.024;2024-03-02T18:25:03;25.13;;;11.70;;
8500;SDS011;4288;48.484;10.024;2024-03-02T18:27:31;21.93;;;11.47;;
8500;SDS011;4288;48.484;10.024;2024-03-02T18:29:59;20.03;;;11.80;;
8500;SDS011;4288;48.484;10.024;2024-03-02T18:32:28;34.27;;;16.50;;
8500;SDS011;4288;48.484;10.024;2024-03-02T18:34:55;36.33;;;17.40;;
8500;SDS011;4288;48.484;10.024;2024-03-02T18:37:24;45.67;;;23.50;;
8500;SDS011;4288;48.484;10.024;2024-03-02T18:39:51;42.87;;;22.70;;
8500;SDS011;4288;48.484;10.024;2024-03-02T18:42:19;36.87;;;20.60;;
8500;SDS011;4288;48.484;10.024;2024-03-02T18:44:47;33.57;;;19.97;;
8500;SDS011;4288;48.484;10.024;2024-03-02T18:47:15;37.60;;;19.93;;
8500;SDS011;4288;48.484;10.024;2024-03-02T18:49:42;44.73;;;20.63;;
8500;SDS011;4288;48.484;10.024;2024-03-02T18:52:10;37.87;;;20.67;;
8500;SDS011;4288;48.484;10.024;2024-03-02T18:54:39;53.13;;;21.60;;
8500;SDS011;4288;48.484;10.024;2024-03-02T18:57:07;39.83;;;23.03;;
8500;SDS011;4288;48.484;10.024;2024-03-02T18:59:34;48.07;;;24.30;;
8500;SDS011;4288;48.484;10.024;2024-03-02T19:02:02;56.50;;;28.80;;
8500;SDS011;4288;48.484;10.024;2024-03-02T19:04:29;83.80;;;32.03;;
8500;SDS011;4288;48.484;10.024;2024-03-02T19:06:57;57.80;;;31.10;;
8500;SDS011;4288;48.484;10.024;2024-03-02T19:09:24;63.30;;;30.17;;
8500;SDS011;4288;48.484;10.024;2024-03-02T19:11:53;64.97;;;30.70;;
8500;SDS011;4288;48.484;10.024;2024-03-02T19:14:21;58.07;;;27.17;;
8500;SDS011;4288;48.484;10.024;2024-03-02T19:16:48;59.40;;;26.30;;
8500;SDS011;4288;48.484;10.024;2024-03-02T19:19:16;53.47;;;26.43;;
8500;SDS011;4288;48.484;10.024;2024-03-02T19:21:43;60.33;;;28.30;;
8500;SDS011;4288;48.484;10.024;2024-03-02T19:24:10;55.77;;;25.50;;
8500;SDS011;4288;48.484;10.024;2024-03-02T19:26:38;62.93;;;26.17;;
8500;SDS011;4288;48.484;10.024;2024-03-02T19:29:07;47.53;;;25.47;;
8500;SDS011;4288;48.484;10.024;2024-03-02T19:31:36;55.10;;;27.90;;
8500;SDS011;4288;48.484;10.024;2024-03-02T19:34:03;47.60;;;25.77;;
8500;SDS011;4288;48.484;10.024;2024-03-02T19:36:31;49.27;;;23.90;;
8500;SDS011;4288;48.484;10.024;2024-03-02T19:38:58;48.27;;;24.17;;
8500;SDS011;4288;48.484;10.024;2024-03-02T19:41:26;44.27;;;23.87;;
8500;SDS011;4288;48.484;10.024;2024-03-02T19:43:53;52.93;;;24.63;;
8500;SDS011;4288;48.484;10.024;2024-03-02T19:46:22;48.00;;;24.10;;
8500;SDS011;4288;48.484;10.024;2024-03-02T19:48:50;50.67;;;23.53;;
8500;SDS011;4288;48.484;10.024;2024-03-02T19:51:18;58.23;;;24.00;;
8500;SDS011;4288;48.484;10.024;2024-03-02T19:53:45;47.57;;;22.90;;
8500;SDS011;4288;48.484;10.024;2024-03-02T19:56:21;54.07;;;22.43;;
8500;SDS011;4288;48.484;10.024;2024-03-02T19:58:49;46.80;;;24.57;;
8500;SDS011;4288;48.484;10.024;2024-03-02T20:01:16;44.43;;;21.10;;
8500;SDS011;4288;48.484;10.024;2024-03-02T20:03:46;40.10;;;19.23;;
8500;SDS011;4288;48.484;10.024;2024-03-02T20:06:15;43.90;;;20.03;;
8500;SDS011;4288;48.484;10.024;2024-03-02T20:08:43;35.43;;;18.67;;
8500;SDS011;4288;48.484;10.024;2024-03-02T20:11:11;32.37;;;17.40;;
8500;SDS011;4288;48.484;10.024;2024-03-02T20:13:38;37.17;;;17.10;;
8500;SDS011;4288;48.484;10.024;2024-03-02T20:16:06;41.77;;;17.60;;
8500;SDS011;4288;48.484;10.024;2024-03-02T20:18:34;36.90;;;17.23;;
8500;SDS011;4288;48.484;10.024;2024-03-02T20:21:03;43.47;;;17.13;;
8500;SDS011;4288;48.484;10.024;2024-03-02T20:23:30;30.33;;;16.20;;
8500;SDS011;4288;48.484;10.024;2024-03-02T20:25:58;29.43;;;15.40;;
8500;SDS011;4288;48.484;10.024;2024-03-02T20:28:25;35.23;;;16.37;;
8500;SDS011;4288;48.484;10.024;2024-03-02T20:30:52;28.97;;;15.27;;
8500;SDS011;4288;48.484;10.024;2024-03-02T20:33:20;33.10;;;16.77;;
8500;SDS011;4288;48.484;10.024;2024-03-02T20:35:47;32.07;;;15.23;;
8500;SDS011;4288;48.484;10.024;2024-03-02T20:38:16;32.20;;;15.37;;
8500;SDS011;4288;48.484;10.024;2024-03-02T20:40:44;28.30;;;14.70;;
8500;SDS011;4288;48.484;10.024;2024-03-02T20:43:15;24.20;;;12.80;;
8500;SDS011;4288;48.484;10.024;2024-03-02T20:45:43;23.93;;;13.90;;
8500;SDS011;4288;48.484;10.024;2024-03-02T20:48:10;22.97;;;13.20;;
8500;SDS011;4288;48.484;10.024;2024-03-02T20:50:38;26.83;;;12.70;;
8500;SDS011;4288;48.484;10.024;2024-03-02T20:53:06;24.57;;;12.37;;
8500;SDS011;4288;48.484;10.024;2024-03-02T20:55:34;25.93;;;11.60;;
8500;SDS011;4288;48.484;10.024;2024-03-02T20:58:02;25.83;;;13.37;;
8500;SDS011;4288;48.484;10.024;2024-03-02T21:00:30;23.90;;;12.13;;
8500;SDS011;4288;48.484;10.024;2024-03-02T21:02:57;23.93;;;12.30;;
8500;SDS011;4288;48.484;10.024;2024-03-02T21:05:25;22.80;;;12.43;;
8500;SDS011;4288;48.484;10.024;2024-03-02T21:07:52;21.40;;;11.47;;
8500;SDS011;4288;48.484;10.024;2024-03-02T21:10:20;28.37;;;12.17;;
8500;SDS011;4288;48.484;10.024;2024-03-02T21:12:48;21.90;;;11.90;;
8500;SDS011;4288;48.484;10.024;2024-03-02T21:15:16;16.30;;;10.40;;
8500;SDS011;4288;48.484;10.024;2024-03-02T21:17:43;22.03;;;10.90;;
8500;SDS011;4288;48.484;10.024;2024-03-02T21:20:11;24.63;;;11.70;;
8500;SDS011;4288;48.484;10.024;2024-03-02T21:22:38;24.07;;;11.20;;
8500;SDS011;4288;48.484;10.024;2024-03-02T21:25:06;15.90;;;9.37;;
8500;SDS011;4288;48.484;10.024;2024-03-02T21:27:36;27.73;;;10.33;;
8500;SDS011;4288;48.484;10.024;2024-03-02T21:30:06;20.80;;;10.43;;
8500;SDS011;4288;48.484;10.024;2024-03-02T21:32:34;20.60;;;10.17;;
8500;SDS011;4288;48.484;10.024;2024-03-02T21:35:01;24.93;;;10.30;;
